Time;durP1;ratioP1;P1;durP2;ratioP2;P2;SDS_P1;SDS_P2;PMS_P1;PMS_P2;Temp;Humidity;BMP_temperature;BMP_pressure;BME280_temperature;BME280_humidity;BME280_pressure;Samples;Min_cycle;Max_cycle;Signal;HPM_P1;HPM_P2
2023/12/01 00:00:39;;;;;;;24.38;12.55;;;1.30;99.90;;;;;;5068416;28;20042;-37
2023/12/01 00:03:05;;;;;;;25.63;12.63;;;1.30;99.90;;;;;;5060709;28;20165;-36
2023/12/01 00:05:31;;;;;;;25.25;12.85;;;1.20;99.90;;;;;;5070285;28;20025;-37
2023/12/01 00:07:56;;;;;;;26.17;12.00;;;1.10;99.90;;;;;;5060911;28;20032;-37
2023/12/01 00:10:22;;;;;;;25.33;11.57;;;1.00;99.90;;;;;;5070841;28;20742;-37
2023/12/01 00:12:48;;;;;;;29.98;13.25;;;1.10;99.90;;;;;;5059379;28;20106;-37
2023/12/01 00:15:13;;;;;;;26.63;13.07;;;1.10;99.90;;;;;;5071745;28;20074;-37
2023/12/01 00:17:39;;;;;;;29.33;12.13;;;1.10;99.90;;;;;;5059226;28;20047;-35
2023/12/01 00:20:05;;;;;;;27.17;12.32;;;1.10;99.90;;;;;;5071731;28;20089;-36
2023/12/01 00:22:31;;;;;;;22.63;10.13;;;1.00;99.90;;;;;;5060111;28;20040;-36
2023/12/01 00:24:57;;;;;;;25.35;10.63;;;1.00;99.90;;;;;;5069556;28;20459;-37
2023/12/01 00:27:22;;;;;;;28.38;11.43;;;1.00;99.90;;;;;;5060470;28;20032;-37
2023/12/01 00:29:48;;;;;;;27.23;11.45;;;0.90;99.90;;;;;;5064812;28;20028;-37
2023/12/01 00:32:13;;;;;;;26.75;10.75;;;0.90;99.90;;;;;;5075107;28;20039;-37
2023/12/01 00:34:39;;;;;;;28.35;11.48;;;0.90;99.90;;;;;;5075174;28;20024;-36
2023/12/01 00:37:05;;;;;;;29.05;12.20;;;1.00;99.90;;;;;;5066608;28;20032;-38
2023/12/01 00:39:30;;;;;;;28.02;11.55;;;1.00;99.90;;;;;;5062178;28;20102;-37
2023/12/01 00:41:56;;;;;;;29.77;12.18;;;1.00;99.90;;;;;;5067653;28;20067;-37
2023/12/01 00:44:21;;;;;;;31.02;12.38;;;1.00;99.90;;;;;;5060632;28;20103;-37
2023/12/01 00:46:50;;;;;;;27.02;11.52;;;1.00;99.90;;;;;;5070894;28;20028;-37
2023/12/01 00:49:15;;;;;;;31.85;13.05;;;1.10;99.90;;;;;;5063835;28;20069;-37
2023/12/01 00:51:43;;;;;;;33.50;13.55;;;1.10;99.90;;;;;;5074073;28;20704;-36
2023/12/01 00:54:09;;;;;;;35.95;13.38;;;1.10;99.90;;;;;;5066462;28;20024;-36
2023/12/01 00:56:35;;;;;;;31.75;13.35;;;1.10;99.90;;;;;;5083044;28;20386;-36
2023/12/01 00:59:00;;;;;;;35.28;14.15;;;1.10;99.90;;;;;;5083939;28;20028;-37
2023/12/01 01:01:26;;;;;;;37.33;14.45;;;1.10;99.90;;;;;;5082437;28;20032;-37
2023/12/01 01:03:51;;;;;;;34.42;13.75;;;1.20;99.90;;;;;;5083381;28;20024;-37
2023/12/01 01:06:17;;;;;;;35.00;13.75;;;1.20;99.90;;;;;;5083487;28;20127;-36
2023/12/01 01:08:43;;;;;;;34.08;14.32;;;1.10;99.90;;;;;;5082697;28;20036;-37
2023/12/01 01:11:09;;;;;;;33.22;13.90;;;1.10;99.90;;;;;;5082326;28;20035;-37
2023/12/01 01:13:36;;;;;;;31.30;12.88;;;1.10;99.90;;;;;;5082539;28;20028;-37
2023/12/01 01:16:02;;;;;;;34.75;13.32;;;1.10;99.90;;;;;;5081640;28;20032;-37
2023/12/01 01:18:27;;;;;;;41.83;14.48;;;1.20;99.90;;;;;;5082829;28;20061;-36
2023/12/01 01:20:53;;;;;;;42.30;16.65;;;1.10;99.90;;;;;;5082337;28;20050;-44
2023/12/01 01:23:19;;;;;;;37.67;14.82;;;1.10;99.90;;;;;;5082670;28;20389;-38
2023/12/01 01:25:44;;;;;;;36.60;14.38;;;1.10;99.90;;;;;;5081868;28;20031;-36
2023/12/01 01:28:10;;;;;;;34.10;13.13;;;1.10;99.90;;;;;;5082494;28;20122;-36
2023/12/01 01:30:35;;;;;;;34.20;13.95;;;1.10;99.90;;;;;;5082118;28;20622;-46
2023/12/01 01:33:01;;;;;;;43.05;15.57;;;1.00;99.90;;;;;;5081868;28;20035;-36
2023/12/01 01:35:27;;;;;;;40.97;15.85;;;1.00;99.90;;;;;;5083535;28;20035;-36
2023/12/01 01:37:52;;;;;;;43.50;16.63;;;1.00;99.90;;;;;;5080471;28;20055;-36
2023/12/01 01:40:18;;;;;;;44.15;15.98;;;1.00;99.90;;;;;;5081949;28;20048;-36
2023/12/01 01:42:43;;;;;;;45.17;17.35;;;1.00;99.90;;;;;;5081587;28;20152;-36
2023/12/01 01:45:10;;;;;;;44.35;17.15;;;1.00;99.90;;;;;;5081524;28;20024;-36
2023/12/01 01:47:36;;;;;;;47.95;18.33;;;1.00;99.90;;;;;;5082227;28;20024;-36
2023/12/01 01:50:06;;;;;;;47.83;18.50;;;1.10;99.90;;;;;;5081772;28;20028;-35
2023/12/01 01:52:33;;;;;;;49.58;17.83;;;1.00;99.90;;;;;;5081805;28;20024;-36
2023/12/01 01:54:59;;;;;;;53.33;18.40;;;1.00;99.90;;;;;;5081167;28;20487;-35
2023/12/01 01:57:25;;;;;;;59.85;21.58;;;1.00;99.90;;;;;;5076200;28;20028;-36
2023/12/01 01:59:50;;;;;;;56.90;19.80;;;1.00;99.90;;;;;;5073398;28;20028;-36
2023/12/01 02:02:16;;;;;;;48.42;18.30;;;1.00;99.90;;;;;;5078416;28;20043;-35
2023/12/01 02:04:42;;;;;;;52.60;18.00;;;1.00;99.90;;;;;;5070702;28;20024;-36
2023/12/01 02:07:25;;;;;;;47.97;17.55;;;1.00;99.90;;;;;;5080336;28;20032;-35
2023/12/01 02:09:50;;;;;;;47.80;18.92;;;1.00;99.90;;;;;;5060710;28;20024;-35
2023/12/01 02:12:16;;;;;;;47.42;17.55;;;1.00;99.90;;;;;;5079396;28;20028;-36
2023/12/01 02:14:41;;;;;;;55.75;18.95;;;1.00;99.90;;;;;;5069000;28;20016;-36
2023/12/01 02:17:07;;;;;;;49.47;17.15;;;1.10;99.90;;;;;;5080196;28;20034;-36
2023/12/01 02:19:32;;;;;;;51.88;18.15;;;1.10;99.90;;;;;;5068788;28;20120;-36
2023/12/01 02:21:58;;;;;;;51.92;19.08;;;1.10;99.90;;;;;;5080795;28;20580;-36
2023/12/01 02:24:24;;;;;;;50.15;17.27;;;1.10;99.90;;;;;;5068605;28;20024;-37
2023/12/01 02:26:49;;;;;;;52.63;18.63;;;1.10;99.90;;;;;;5080342;28;20028;-36
2023/12/01 02:29:15;;;;;;;53.08;17.85;;;1.20;99.90;;;;;;5068676;28;20027;-37
2023/12/01 02:31:40;;;;;;;49.75;19.40;;;1.20;99.90;;;;;;5080196;28;20024;-37
2023/12/01 02:34:06;;;;;;;43.88;16.73;;;1.20;99.90;;;;;;5070429;28;20680;-36
2023/12/01 02:36:32;;;;;;;47.28;19.08;;;1.20;99.90;;;;;;5077724;28;20020;-36
2023/12/01 02:38:57;;;;;;;49.55;18.60;;;1.20;99.90;;;;;;5072974;28;20463;-36
2023/12/01 02:41:23;;;;;;;47.83;18.85;;;1.30;99.90;;;;;;5073939;28;20418;-36
2023/12/01 02:43:48;;;;;;;46.53;18.05;;;1.30;99.90;;;;;;5076342;28;20020;-37
2023/12/01 02:46:14;;;;;;;43.95;17.67;;;1.30;99.90;;;;;;5072433;28;20019;-36
2023/12/01 02:48:40;;;;;;;51.10;19.60;;;1.30;99.90;;;;;;5078692;28;20023;-36
2023/12/01 02:51:07;;;;;;;48.80;19.23;;;1.30;99.90;;;;;;5058371;28;20081;-36
2023/12/01 02:53:33;;;;;;;46.67;17.48;;;1.30;99.90;;;;;;5079600;28;20024;-36
2023/12/01 02:55:59;;;;;;;47.92;19.17;;;1.30;99.90;;;;;;5067640;28;20058;-36
2023/12/01 02:58:25;;;;;;;43.17;17.50;;;1.30;99.90;;;;;;5079853;28;20642;-35
2023/12/01 03:00:50;;;;;;;47.42;19.25;;;1.30;99.90;;;;;;5067130;28;20020;-36
2023/12/01 03:03:16;;;;;;;41.38;17.33;;;1.30;99.90;;;;;;5079725;28;20063;-35
2023/12/01 03:05:42;;;;;;;44.35;17.35;;;1.40;99.90;;;;;;5066761;28;20047;-37
2023/12/01 03:08:07;;;;;;;39.40;16.98;;;1.40;99.90;;;;;;5079667;28;20370;-36
2023/12/01 03:10:34;;;;;;;42.20;16.92;;;1.40;99.90;;;;;;5068915;28;20071;-37
2023/12/01 03:13:00;;;;;;;43.83;18.20;;;1.40;99.90;;;;;;5079137;28;20028;-36
2023/12/01 03:15:26;;;;;;;36.05;16.30;;;1.40;99.90;;;;;;5070936;28;20064;-36
2023/12/01 03:17:51;;;;;;;38.65;17.50;;;1.50;99.90;;;;;;5075851;28;20101;-36
2023/12/01 03:20:17;;;;;;;46.08;17.48;;;1.50;99.90;;;;;;5073915;28;20025;-35
2023/12/01 03:22:50;;;;;;;45.55;17.63;;;1.50;99.90;;;;;;5073474;28;20109;-36
2023/12/01 03:25:16;;;;;;;43.80;17.45;;;1.50;99.90;;;;;;5075052;28;20021;-37
2023/12/01 03:27:44;;;;;;;41.10;17.92;;;1.50;99.90;;;;;;5071436;28;20031;-36
2023/12/01 03:30:15;;;;;;;39.20;17.30;;;1.50;99.90;;;;;;5077511;28;20425;-37
2023/12/01 03:32:51;;;;;;;40.55;17.48;;;1.60;99.90;;;;;;5070707;28;20036;-36
2023/12/01 03:35:21;;;;;;;37.92;16.38;;;1.60;99.90;;;;;;5077432;28;20031;-36
2023/12/01 03:37:48;;;;;;;42.00;17.55;;;1.60;99.90;;;;;;5069031;28;20420;-36
2023/12/01 03:40:14;;;;;;;44.03;17.23;;;1.60;99.90;;;;;;5078903;28;20028;-36
2023/12/01 03:42:47;;;;;;;41.40;17.15;;;1.60;99.90;;;;;;5068525;28;20135;-36
2023/12/01 03:45:16;;;;;;;38.50;15.80;;;1.60;99.90;;;;;;5078427;28;20425;-37
2023/12/01 03:47:46;;;;;;;35.35;15.65;;;1.70;99.90;;;;;;5068416;28;20020;-36
2023/12/01 03:50:13;;;;;;;41.00;17.50;;;1.60;99.90;;;;;;5059751;28;20115;-36
2023/12/01 03:52:42;;;;;;;42.05;16.92;;;1.70;99.90;;;;;;5066960;28;20105;-38
2023/12/01 03:55:09;;;;;;;40.13;17.35;;;1.70;99.90;;;;;;5079143;28;20052;-37
2023/12/01 03:57:37;;;;;;;43.03;17.67;;;1.70;99.90;;;;;;5065676;28;20773;-37
2023/12/01 04:00:07;;;;;;;37.22;16.60;;;1.70;99.90;;;;;;5079468;28;20123;-37
2023/12/01 04:02:38;;;;;;;40.85;16.95;;;1.70;99.90;;;;;;5067631;28;20134;-37
2023/12/01 04:05:06;;;;;;;34.42;15.55;;;1.70;99.90;;;;;;5079855;28;20096;-37
2023/12/01 04:07:33;;;;;;;38.80;16.02;;;1.70;99.90;;;;;;5068024;28;20029;-37
2023/12/01 04:09:58;;;;;;;36.47;17.48;;;1.70;99.90;;;;;;5079505;28;20101;-36
2023/12/01 04:12:24;;;;;;;42.85;17.70;;;1.70;99.90;;;;;;5069326;28;20032;-36
2023/12/01 04:14:49;;;;;;;34.92;15.00;;;1.70;99.90;;;;;;5075925;28;20031;-37
2023/12/01 04:17:15;;;;;;;36.60;16.45;;;1.70;99.90;;;;;;5072631;28;20029;-37
2023/12/01 04:19:41;;;;;;;37.75;16.58;;;1.70;99.90;;;;;;5073152;28;20431;-37
2023/12/01 04:22:06;;;;;;;36.58;16.05;;;1.70;99.90;;;;;;5077941;28;20044;-37
2023/12/01 04:24:33;;;;;;;39.65;18.27;;;1.70;99.90;;;;;;5075368;28;20378;-36
2023/12/01 04:27:00;;;;;;;42.47;17.45;;;1.70;99.90;;;;;;5065008;28;20089;-36
2023/12/01 04:29:28;;;;;;;38.20;16.92;;;1.80;99.90;;;;;;5074241;28;20055;-36
2023/12/01 04:31:53;;;;;;;38.60;16.95;;;1.70;99.90;;;;;;5064269;28;20493;-38
2023/12/01 04:34:20;;;;;;;38.78;15.10;;;1.70;99.90;;;;;;5073415;28;20021;-37
2023/12/01 04:36:47;;;;;;;40.55;16.33;;;1.70;99.90;;;;;;5062967;28;20031;-36
2023/12/01 04:39:14;;;;;;;38.70;16.85;;;1.70;99.90;;;;;;5073923;28;20035;-36
2023/12/01 04:41:39;;;;;;;40.03;17.13;;;1.70;99.90;;;;;;5061987;28;20043;-37
2023/12/01 04:44:05;;;;;;;43.70;16.90;;;1.70;99.90;;;;;;5075480;28;20016;-36
2023/12/01 04:46:31;;;;;;;41.10;17.33;;;1.70;99.90;;;;;;5062878;28;20034;-36
2023/12/01 04:48:56;;;;;;;44.63;17.17;;;1.60;99.90;;;;;;5074847;28;20069;-36
2023/12/01 04:51:22;;;;;;;45.13;19.13;;;1.60;99.90;;;;;;5063245;28;20033;-36
2023/12/01 04:53:48;;;;;;;43.15;18.38;;;1.60;99.90;;;;;;5071341;28;20019;-36
2023/12/01 04:56:14;;;;;;;45.85;18.95;;;1.60;99.90;;;;;;5064956;28;20242;-36
2023/12/01 04:58:39;;;;;;;46.67;19.02;;;1.60;99.90;;;;;;5069051;28;20132;-38
2023/12/01 05:01:05;;;;;;;45.90;19.25;;;1.60;99.90;;;;;;5067340;28;20029;-36
2023/12/01 05:03:31;;;;;;;45.13;18.90;;;1.50;99.90;;;;;;5066462;28;20074;-38
2023/12/01 05:05:58;;;;;;;46.38;19.42;;;1.50;99.90;;;;;;5070064;28;20024;-35
2023/12/01 05:08:24;;;;;;;43.38;18.23;;;1.50;99.90;;;;;;5065744;28;20020;-35
2023/12/01 05:10:51;;;;;;;42.65;18.10;;;1.50;99.90;;;;;;5071940;28;20838;-36
2023/12/01 05:13:17;;;;;;;44.45;18.50;;;1.50;99.90;;;;;;5081421;28;20108;-36
2023/12/01 05:15:43;;;;;;;43.15;18.33;;;1.60;99.90;;;;;;5070351;28;20831;-36
2023/12/01 05:18:11;;;;;;;42.65;17.60;;;1.60;99.90;;;;;;5081353;28;20578;-36
2023/12/01 05:20:38;;;;;;;44.40;17.92;;;1.60;99.90;;;;;;5070675;28;20100;-36
2023/12/01 05:23:05;;;;;;;47.58;18.52;;;1.60;99.90;;;;;;5081409;28;20048;-36
2023/12/01 05:25:34;;;;;;;42.38;17.27;;;1.60;99.90;;;;;;5069083;28;20121;-36
2023/12/01 05:28:07;;;;;;;46.72;18.23;;;1.60;99.90;;;;;;5081786;28;20024;-37
2023/12/01 05:30:35;;;;;;;45.90;18.73;;;1.60;99.90;;;;;;5068035;28;20127;-37
2023/12/01 05:33:01;;;;;;;41.42;18.30;;;1.60;99.90;;;;;;5080786;28;20028;-36
2023/12/01 05:35:27;;;;;;;44.47;17.85;;;1.60;99.90;;;;;;5070236;28;20449;-37
2023/12/01 05:37:54;;;;;;;36.35;16.88;;;1.60;99.90;;;;;;5080473;28;20050;-37
2023/12/01 05:40:30;;;;;;;42.00;16.65;;;1.70;99.90;;;;;;5072914;28;20867;-37
2023/12/01 05:42:57;;;;;;;39.55;17.65;;;1.70;99.90;;;;;;5079386;28;20086;-37
2023/12/01 05:45:35;;;;;;;43.03;18.73;;;1.70;99.90;;;;;;5073718;28;20465;-37
2023/12/01 05:48:02;;;;;;;39.08;17.42;;;1.70;99.90;;;;;;5079121;28;20031;-37
2023/12/01 05:50:32;;;;;;;40.92;18.08;;;1.70;99.90;;;;;;5076596;28;20020;-37
2023/12/01 05:53:00;;;;;;;39.78;17.90;;;1.70;99.90;;;;;;5065902;28;20025;-42
2023/12/01 05:55:28;;;;;;;46.13;18.38;;;1.70;99.90;;;;;;5072881;28;20040;-37
2023/12/01 05:57:58;;;;;;;43.75;18.60;;;1.80;99.90;;;;;;5081769;28;20274;-38
2023/12/01 06:00:29;;;;;;;43.65;19.27;;;1.80;99.90;;;;;;5082889;28;20059;-42
2023/12/01 06:02:57;;;;;;;44.33;18.75;;;1.80;99.90;;;;;;5081130;28;20043;-35
2023/12/01 06:05:23;;;;;;;47.72;21.20;;;1.80;99.90;;;;;;5080851;28;20039;-37
2023/12/01 06:07:52;;;;;;;47.50;20.02;;;1.70;99.90;;;;;;5081564;28;20024;-35
2023/12/01 06:10:18;;;;;;;43.53;18.27;;;1.70;99.90;;;;;;5081656;28;20022;-37
2023/12/01 06:12:44;;;;;;;41.40;18.17;;;1.60;99.90;;;;;;5081127;28;20191;-38
2023/12/01 06:15:16;;;;;;;37.60;16.98;;;1.60;99.90;;;;;;5081470;28;20052;-38
2023/12/01 06:17:44;;;;;;;31.93;14.37;;;1.60;99.90;;;;;;5079234;28;20024;-39
2023/12/01 06:20:18;;;;;;;33.63;15.13;;;1.60;99.90;;;;;;5080615;28;20028;-37
2023/12/01 06:22:49;;;;;;;33.90;15.10;;;1.60;99.90;;;;;;5076828;28;20048;-37
2023/12/01 06:25:16;;;;;;;41.05;16.08;;;1.70;99.90;;;;;;5081242;28;20028;-36
2023/12/01 06:27:42;;;;;;;36.90;16.58;;;1.70;99.90;;;;;;5079796;28;20016;-42
2023/12/01 06:30:12;;;;;;;41.00;17.42;;;1.70;99.90;;;;;;5080597;28;20039;-39
2023/12/01 06:32:42;;;;;;;41.65;17.55;;;1.70;99.90;;;;;;5079621;28;20502;-37
2023/12/01 06:35:12;;;;;;;44.10;18.35;;;1.70;99.90;;;;;;5081301;28;20142;-36
2023/12/01 06:37:42;;;;;;;40.83;17.23;;;1.70;99.90;;;;;;5080701;28;20624;-35
2023/12/01 06:40:12;;;;;;;39.28;16.75;;;1.70;99.90;;;;;;5080701;28;20024;-48
2023/12/01 06:42:42;;;;;;;34.75;15.82;;;1.70;99.90;;;;;;5061951;28;20107;-36
2023/12/01 06:45:13;;;;;;;33.40;15.68;;;1.70;99.90;;;;;;5079658;28;20047;-37
2023/12/01 06:47:42;;;;;;;30.60;14.20;;;1.70;99.90;;;;;;5079227;28;20027;-35
2023/12/01 06:50:09;;;;;;;30.35;13.55;;;1.70;99.90;;;;;;5081317;28;20031;-38
2023/12/01 06:52:36;;;;;;;31.45;13.32;;;1.70;99.90;;;;;;5080326;28;20161;-36
2023/12/01 06:55:03;;;;;;;27.27;12.10;;;1.70;99.90;;;;;;5079274;28;20055;-36
2023/12/01 06:57:29;;;;;;;27.00;12.88;;;1.70;99.90;;;;;;5073914;28;20028;-37
2023/12/01 06:59:55;;;;;;;24.40;11.63;;;1.70;99.90;;;;;;5073251;28;20032;-37
2023/12/01 07:02:23;;;;;;;27.05;12.00;;;1.60;99.90;;;;;;5076517;28;20043;-35
2023/12/01 07:04:49;;;;;;;28.52;12.52;;;1.70;99.90;;;;;;5059613;28;20028;-36
2023/12/01 07:07:15;;;;;;;29.33;13.27;;;1.60;99.90;;;;;;5060708;28;20471;-36
2023/12/01 07:09:43;;;;;;;29.30;13.27;;;1.60;99.90;;;;;;5070349;28;20571;-37
2023/12/01 07:12:09;;;;;;;27.42;13.00;;;1.60;99.90;;;;;;5060464;28;20471;-36
2023/12/01 07:14:36;;;;;;;26.33;12.38;;;1.60;99.90;;;;;;5070056;28;20016;-36
2023/12/01 07:17:05;;;;;;;25.23;11.80;;;1.50;99.90;;;;;;5059064;28;20074;-37
2023/12/01 07:19:32;;;;;;;24.98;11.40;;;1.50;99.90;;;;;;5065999;28;20837;-36
2023/12/01 07:21:58;;;;;;;24.17;11.38;;;1.50;99.90;;;;;;5078086;28;20062;-37
2023/12/01 07:24:24;;;;;;;22.60;10.40;;;1.50;99.90;;;;;;5066865;28;20427;-37
2023/12/01 07:26:51;;;;;;;21.13;10.00;;;1.50;99.90;;;;;;5079178;28;20035;-36
2023/12/01 07:29:18;;;;;;;25.33;10.90;;;1.50;99.90;;;;;;5065847;28;20363;-36
2023/12/01 07:31:44;;;;;;;23.15;10.75;;;1.50;99.90;;;;;;5079147;28;20032;-36
2023/12/01 07:34:11;;;;;;;19.73;9.85;;;1.40;99.90;;;;;;5070127;28;20024;-37
2023/12/01 07:36:40;;;;;;;23.13;10.25;;;1.40;99.90;;;;;;5077629;28;20016;-37
2023/12/01 07:39:06;;;;;;;20.95;10.18;;;1.40;99.90;;;;;;5071940;28;20031;-36
2023/12/01 07:41:32;;;;;;;20.63;9.88;;;1.40;99.90;;;;;;5075602;28;20020;-36
2023/12/01 07:43:58;;;;;;;21.85;10.18;;;1.40;99.90;;;;;;5073655;28;20038;-38
2023/12/01 07:46:24;;;;;;;20.75;10.38;;;1.40;99.90;;;;;;5073100;28;20050;-37
2023/12/01 07:48:50;;;;;;;18.65;10.07;;;1.40;99.90;;;;;;5075897;28;20016;-37
2023/12/01 07:51:16;;;;;;;22.83;10.85;;;1.30;99.90;;;;;;5069561;28;20031;-36
2023/12/01 07:53:45;;;;;;;20.83;10.05;;;1.30;99.90;;;;;;5077636;28;20021;-37
2023/12/01 07:56:19;;;;;;;20.17;9.43;;;1.30;99.90;;;;;;5077821;28;20617;-37
2023/12/01 07:58:45;;;;;;;23.80;10.25;;;1.30;99.90;;;;;;5083442;28;20466;-36
2023/12/01 08:01:14;;;;;;;22.40;9.57;;;1.30;99.90;;;;;;5084378;28;20108;-37
2023/12/01 08:03:41;;;;;;;20.42;9.90;;;1.30;99.90;;;;;;5082829;28;20377;-36
2023/12/01 08:06:07;;;;;;;18.85;9.27;;;1.30;99.90;;;;;;5083516;28;20028;-36
2023/12/01 08:08:33;;;;;;;22.60;11.07;;;1.30;99.90;;;;;;5083904;28;20053;-37
2023/12/01 08:10:59;;;;;;;18.98;9.38;;;1.20;99.90;;;;;;5082927;28;20486;-36
2023/12/01 08:13:24;;;;;;;20.83;9.15;;;1.20;99.90;;;;;;5085186;28;20028;-39
2023/12/01 08:15:53;;;;;;;21.60;9.77;;;1.20;99.90;;;;;;5083847;28;20094;-37
2023/12/01 08:18:25;;;;;;;18.75;9.45;;;1.30;99.90;;;;;;5063809;28;20115;-36
2023/12/01 08:20:50;;;;;;;18.38;9.02;;;1.20;99.90;;;;;;5078109;28;20039;-37
2023/12/01 08:23:16;;;;;;;17.35;8.70;;;1.30;99.90;;;;;;5083984;28;20044;-36
2023/12/01 08:25:43;;;;;;;16.58;8.70;;;1.30;99.90;;;;;;5082350;28;20154;-35
2023/12/01 08:28:09;;;;;;;18.30;9.07;;;1.30;99.90;;;;;;5083475;28;20092;-36
2023/12/01 08:30:34;;;;;;;19.38;9.68;;;1.30;99.90;;;;;;5083572;28;20036;-36
2023/12/01 08:33:00;;;;;;;24.50;11.32;;;1.30;99.90;;;;;;5082232;28;20131;-36
2023/12/01 08:35:26;;;;;;;20.98;10.55;;;1.20;99.90;;;;;;5083588;28;20044;-37
2023/12/01 08:37:52;;;;;;;22.58;10.57;;;1.20;99.90;;;;;;5082501;28;20035;-36
2023/12/01 08:40:18;;;;;;;17.55;9.32;;;1.20;99.90;;;;;;5082587;28;20024;-35
2023/12/01 08:42:43;;;;;;;21.00;10.50;;;1.20;99.90;;;;;;5082899;28;20035;-36
2023/12/01 08:45:10;;;;;;;20.63;10.70;;;1.20;99.90;;;;;;5082933;28;20085;-36
2023/12/01 08:47:36;;;;;;;20.15;10.25;;;1.20;99.90;;;;;;5081931;28;20540;-37
2023/12/01 08:50:02;;;;;;;19.90;9.45;;;1.30;99.90;;;;;;5082711;28;20059;-36
2023/12/01 08:52:28;;;;;;;18.40;9.80;;;1.20;99.90;;;;;;5082529;28;20032;-35
2023/12/01 08:54:54;;;;;;;19.85;9.95;;;1.30;99.90;;;;;;5082942;28;20113;-36
2023/12/01 08:57:19;;;;;;;20.10;9.65;;;1.20;99.90;;;;;;5069858;28;20078;-40
2023/12/01 08:59:45;;;;;;;20.00;10.02;;;1.20;99.90;;;;;;5081856;28;20803;-36
2023/12/01 09:02:11;;;;;;;20.73;9.70;;;1.20;99.90;;;;;;5070909;28;20554;-36
2023/12/01 09:04:36;;;;;;;19.50;9.70;;;1.20;99.90;;;;;;5081134;28;20952;-36
2023/12/01 09:07:02;;;;;;;17.92;9.65;;;1.20;99.90;;;;;;5074023;28;20047;-36
2023/12/01 09:09:28;;;;;;;20.35;9.77;;;1.20;99.90;;;;;;5077889;28;20749;-38
2023/12/01 09:11:54;;;;;;;20.20;9.50;;;1.20;99.90;;;;;;5077429;28;20029;-37
2023/12/01 09:14:19;;;;;;;21.20;9.98;;;1.20;99.90;;;;;;5075237;28;20063;-36
2023/12/01 09:16:45;;;;;;;20.45;9.20;;;1.20;99.90;;;;;;5080243;28;20146;-36
2023/12/01 09:19:11;;;;;;;20.80;9.45;;;1.20;99.90;;;;;;5072442;28;20100;-37
2023/12/01 09:21:37;;;;;;;18.38;8.80;;;1.20;99.90;;;;;;5080072;28;20024;-37
2023/12/01 09:24:02;;;;;;;17.80;8.73;;;1.20;99.90;;;;;;5071027;28;20066;-37
2023/12/01 09:26:31;;;;;;;19.23;8.52;;;1.20;99.90;;;;;;5081894;28;20051;-36
2023/12/01 09:28:57;;;;;;;20.20;9.43;;;1.20;99.90;;;;;;5068860;28;20031;-36
2023/12/01 09:31:23;;;;;;;16.27;8.13;;;1.30;99.90;;;;;;5041991;28;20029;-36
2023/12/01 09:33:49;;;;;;;17.85;8.93;;;1.30;99.90;;;;;;5073931;28;20024;-37
2023/12/01 09:36:17;;;;;;;16.58;8.20;;;1.30;99.90;;;;;;5061239;28;20037;-36
2023/12/01 09:38:44;;;;;;;20.15;9.13;;;1.30;99.90;;;;;;5074233;28;20027;-37
2023/12/01 09:41:14;;;;;;;18.20;8.52;;;1.30;99.90;;;;;;5062006;28;20112;-36
2023/12/01 09:43:43;;;;;;;18.35;8.65;;;1.30;99.90;;;;;;5065405;28;20770;-37
2023/12/01 09:46:11;;;;;;;14.57;8.00;;;1.40;99.90;;;;;;5080401;28;20020;-36
2023/12/01 09:48:40;;;;;;;16.73;8.27;;;1.50;99.90;;;;;;5071927;28;20781;-37
2023/12/01 09:51:09;;;;;;;17.30;8.38;;;1.50;99.90;;;;;;5077122;28;20684;-38
2023/12/01 09:53:36;;;;;;;14.90;7.97;;;1.50;99.90;;;;;;5074009;28;20012;-36
2023/12/01 09:56:04;;;;;;;17.15;8.18;;;1.60;99.90;;;;;;5076375;28;20044;-37
2023/12/01 09:58:30;;;;;;;18.83;9.10;;;1.60;99.90;;;;;;5081659;28;20024;-37
2023/12/01 10:00:56;;;;;;;17.75;8.85;;;1.70;99.90;;;;;;5081514;28;20032;-36
2023/12/01 10:03:22;;;;;;;14.75;7.95;;;1.70;99.90;;;;;;5081252;28;20471;-36
2023/12/01 10:05:48;;;;;;;16.65;8.57;;;1.70;99.90;;;;;;5081190;28;20028;-37
2023/12/01 10:08:16;;;;;;;21.65;9.18;;;1.70;99.90;;;;;;5081326;28;20051;-37
2023/12/01 10:10:42;;;;;;;17.05;8.30;;;1.70;99.90;;;;;;5080656;28;20020;-36
2023/12/01 10:13:08;;;;;;;19.60;8.73;;;1.60;99.90;;;;;;5081243;28;20028;-36
2023/12/01 10:15:38;;;;;;;18.13;8.65;;;1.60;99.90;;;;;;5081119;28;20059;-36
2023/12/01 10:18:16;;;;;;;17.17;9.32;;;1.70;99.90;;;;;;5079786;28;20032;-37
2023/12/01 10:21:02;;;;;;;17.92;8.98;;;1.70;99.90;;;;;;5081216;28;20051;-35
2023/12/01 10:23:30;;;;;;;16.88;8.55;;;1.70;99.90;;;;;;5081083;28;20142;-37
2023/12/01 10:25:56;;;;;;;15.73;8.10;;;1.60;99.90;;;;;;5080041;28;20260;-35
2023/12/01 10:28:25;;;;;;;15.35;7.72;;;1.60;99.90;;;;;;5081307;28;20032;-37
2023/12/01 10:30:56;;;;;;;14.02;7.25;;;1.60;99.90;;;;;;5080246;28;20547;-37
2023/12/01 10:33:23;;;;;;;16.90;8.45;;;1.60;99.90;;;;;;5080851;28;20089;-36
2023/12/01 10:36:09;;;;;;;15.45;7.55;;;1.60;99.90;;;;;;5080475;28;20036;-37
2023/12/01 10:38:36;;;;;;;13.93;6.80;;;1.60;99.90;;;;;;5081090;28;20055;-37
2023/12/01 10:41:03;;;;;;;14.13;6.95;;;1.60;99.90;;;;;;5079498;28;20528;-36
2023/12/01 10:43:30;;;;;;;16.00;7.45;;;1.60;99.90;;;;;;5081153;28;20040;-37
2023/12/01 10:46:04;;;;;;;13.82;6.90;;;1.60;99.90;;;;;;5079410;28;20917;-36
2023/12/01 10:48:34;;;;;;;18.52;8.13;;;1.70;99.90;;;;;;5081124;28;20655;-36
2023/12/01 10:51:03;;;;;;;17.58;8.00;;;1.70;99.90;;;;;;5079527;28;20020;-35
2023/12/01 10:53:29;;;;;;;16.80;7.47;;;1.80;99.90;;;;;;5080183;28;20584;-37
2023/12/01 10:56:04;;;;;;;16.75;7.05;;;1.80;99.90;;;;;;5070426;28;20044;-36
2023/12/01 10:58:35;;;;;;;15.23;7.22;;;1.80;99.90;;;;;;5078689;28;20035;-43
2023/12/01 11:01:02;;;;;;;17.17;8.60;;;1.80;99.90;;;;;;5069953;28;20036;-38
2023/12/01 11:03:34;;;;;;;16.27;8.52;;;1.80;99.90;;;;;;5077293;28;20128;-36
2023/12/01 11:06:05;;;;;;;18.20;8.33;;;1.80;99.90;;;;;;5071728;28;20024;-46
2023/12/01 11:08:46;;;;;;;13.30;7.43;;;1.70;99.90;;;;;;5076506;28;20872;-37
2023/12/01 11:11:19;;;;;;;19.95;8.13;;;1.70;99.90;;;;;;5071725;28;20554;-36
2023/12/01 11:13:58;;;;;;;17.20;8.40;;;1.60;99.90;;;;;;5075304;28;20032;-37
2023/12/01 11:16:26;;;;;;;18.13;8.95;;;1.60;99.90;;;;;;5071524;28;20029;-36
2023/12/01 11:18:53;;;;;;;16.92;8.40;;;1.60;99.90;;;;;;5076304;28;20024;-41
2023/12/01 11:21:19;;;;;;;15.43;7.45;;;1.60;99.90;;;;;;5073946;28;20025;-37
2023/12/01 11:23:44;;;;;;;17.83;8.25;;;1.60;99.90;;;;;;5073314;28;20094;-37
2023/12/01 11:26:11;;;;;;;17.50;8.60;;;1.60;99.90;;;;;;5076998;28;20139;-36
2023/12/01 11:28:46;;;;;;;15.98;8.00;;;1.60;99.90;;;;;;5070598;28;20024;-36
2023/12/01 11:31:14;;;;;;;13.85;7.75;;;1.60;99.90;;;;;;5077399;28;20077;-36
2023/12/01 11:33:51;;;;;;;15.82;8.00;;;1.70;99.90;;;;;;5070486;28;20754;-37
2023/12/01 11:36:19;;;;;;;13.38;7.63;;;1.70;99.90;;;;;;5078316;28;20020;-36
2023/12/01 11:41:46;;;;;;;15.70;8.45;;;1.70;99.90;;;;;;5065046;28;20581;-41
2023/12/01 11:44:40;;;;;;;16.73;7.70;;;1.70;99.90;;;;;;5071367;28;20512;-36
2023/12/01 11:47:13;;;;;;;17.10;7.93;;;1.60;99.90;;;;;;5071326;28;20028;-37
2023/12/01 11:49:44;;;;;;;16.67;8.35;;;1.70;99.90;;;;;;5073581;28;20769;-37
2023/12/01 11:52:20;;;;;;;13.75;6.88;;;1.60;99.90;;;;;;5075664;28;20526;-36
2023/12/01 11:54:48;;;;;;;16.42;7.45;;;1.60;99.90;;;;;;5073128;28;20101;-37
2023/12/01 11:57:17;;;;;;;15.25;7.75;;;1.60;99.90;;;;;;5075724;28;20035;-36
2023/12/01 11:59:44;;;;;;;17.33;8.07;;;1.50;99.90;;;;;;5071242;28;20032;-36
2023/12/01 12:02:10;;;;;;;16.75;8.85;;;1.50;99.90;;;;;;5080526;28;20486;-37
2023/12/01 12:04:39;;;;;;;18.10;9.30;;;1.50;99.90;;;;;;5068420;28;20123;-36
2023/12/01 12:07:06;;;;;;;16.63;8.35;;;1.40;99.90;;;;;;5077660;28;20109;-37
2023/12/01 12:09:32;;;;;;;20.40;9.27;;;1.40;99.90;;;;;;5067348;28;20024;-36
2023/12/01 12:12:00;;;;;;;17.33;8.70;;;1.30;99.90;;;;;;5076892;28;20117;-40
2023/12/01 12:14:29;;;;;;;19.50;9.73;;;1.30;99.90;;;;;;5065634;28;20028;-37
2023/12/01 12:16:55;;;;;;;16.80;8.57;;;1.30;99.90;;;;;;5041304;28;20543;-40
2023/12/01 12:19:21;;;;;;;17.98;9.02;;;1.30;99.90;;;;;;5064012;28;20032;-44
2023/12/01 12:21:48;;;;;;;17.65;9.00;;;1.20;99.90;;;;;;5045259;28;20033;-37
2023/12/01 12:24:14;;;;;;;15.60;8.50;;;1.20;99.90;;;;;;5059541;28;20028;-36
2023/12/01 12:26:40;;;;;;;17.98;8.25;;;1.20;99.90;;;;;;5046292;28;20597;-45
2023/12/01 12:29:08;;;;;;;17.02;8.18;;;1.20;99.90;;;;;;5055071;28;20033;-36
2023/12/01 12:31:37;;;;;;;14.13;7.93;;;1.20;99.90;;;;;;5057114;28;20032;-36
2023/12/01 12:34:06;;;;;;;19.80;8.50;;;1.20;99.90;;;;;;5053181;28;20115;-37
2023/12/01 12:36:34;;;;;;;16.10;8.27;;;1.30;99.90;;;;;;5053303;28;20033;-35
2023/12/01 12:39:03;;;;;;;18.00;8.48;;;1.30;99.90;;;;;;5055929;28;20031;-35
2023/12/01 12:41:32;;;;;;;19.10;8.65;;;1.30;99.90;;;;;;5065362;28;20028;-36
2023/12/01 12:44:00;;;;;;;20.05;9.50;;;1.30;99.90;;;;;;5065684;28;20054;-36